Time;durP1;ratioP1;P1;durP2;ratioP2;P2;SDS_P1;SDS_P2;PMS_P1;PMS_P2;Temp;Humidity;BMP_temperature;BMP_pressure;BME280_temperature;BME280_humidity;BME280_pressure;Samples;Min_cycle;Max_cycle;Signal;HPM_P1;HPM_P2
2022/04/15 00:00:31;;;;;;;6.05;3.67;;;;;;;12.55;36.88;101654.09;5085975;28;20410;-56
2022/04/15 00:02:58;;;;;;;4.70;3.40;;;;;;;12.57;36.86;101645.97;5090650;28;20424;-54
2022/04/15 00:05:36;;;;;;;5.20;3.45;;;;;;;12.56;36.77;101645.13;5088861;28;20451;-56
2022/04/15 00:08:04;;;;;;;5.40;3.20;;;;;;;12.56;36.77;101647.78;5086666;28;20452;-53
2022/04/15 00:10:32;;;;;;;6.25;3.10;;;;;;;12.65;36.60;101643.31;5086980;28;20446;-56
2022/04/15 00:13:00;;;;;;;5.85;3.30;;;;;;;12.60;36.46;101638.50;5087909;28;20438;-54
2022/04/15 00:15:27;;;;;;;7.00;3.42;;;;;;;12.53;36.62;101641.94;5073919;28;20413;-55
2022/04/15 00:17:55;;;;;;;5.22;3.42;;;;;;;12.56;36.79;101646.94;5077168;28;20411;-56
2022/04/15 00:20:22;;;;;;;3.95;3.10;;;;;;;12.57;36.88;101640.66;5071614;28;20491;-56
2022/04/15 00:22:49;;;;;;;5.43;3.70;;;;;;;12.58;36.90;101637.81;5075274;28;20423;-55
2022/04/15 00:25:16;;;;;;;5.10;3.30;;;;;;;12.53;37.21;101634.81;5073721;28;20447;-56
2022/04/15 00:27:59;;;;;;;5.07;3.58;;;;;;;12.56;36.92;101637.13;5088553;27;20535;-55
2022/04/15 00:30:26;;;;;;;6.97;3.60;;;;;;;12.54;36.93;101638.31;5067177;28;20491;-57
2022/04/15 00:32:53;;;;;;;5.35;3.60;;;;;;;12.49;37.26;101641.44;5085530;28;20414;-56
2022/04/15 00:35:20;;;;;;;7.07;3.90;;;;;;;12.44;37.38;101649.03;5085748;28;20425;-55
2022/04/15 00:37:47;;;;;;;8.57;3.88;;;;;;;12.40;37.45;101645.03;5085624;28;20418;-56
2022/04/15 00:40:14;;;;;;;6.85;3.60;;;;;;;12.44;37.50;101641.06;5085322;28;20441;-56
2022/04/15 00:42:42;;;;;;;6.32;3.50;;;;;;;12.40;37.51;101651.19;5085430;28;20441;-56
2022/04/15 00:45:11;;;;;;;4.53;3.47;;;;;;;12.44;37.57;101651.69;5084055;28;20495;-55
2022/04/15 00:47:53;;;;;;;5.00;3.23;;;;;;;12.45;37.36;101641.91;5085066;28;20430;-56
2022/04/15 00:50:23;;;;;;;6.57;3.65;;;;;;;12.45;37.46;101647.25;5083941;28;20434;-56
2022/04/15 00:52:52;;;;;;;5.43;3.38;;;;;;;12.43;37.61;101639.41;5082624;28;20415;-56
2022/04/15 00:55:20;;;;;;;8.05;4.15;;;;;;;12.41;37.56;101639.56;5085742;28;20497;-56
2022/04/15 00:57:50;;;;;;;4.75;3.80;;;;;;;12.41;37.85;101642.22;5085314;28;20920;-56
2022/04/15 01:00:21;;;;;;;7.53;3.70;;;;;;;12.36;37.99;101643.72;5083479;28;20402;-56
2022/04/15 01:02:48;;;;;;;6.82;3.90;;;;;;;12.35;38.03;101637.56;5084994;28;20406;-56
2022/04/15 01:05:16;;;;;;;5.13;4.00;;;;;;;12.32;38.12;101632.56;5084983;28;20446;-56
2022/04/15 01:07:46;;;;;;;7.22;4.00;;;;;;;12.27;38.09;101634.03;5085495;28;20864;-56
2022/04/15 01:11:23;;;;;;;7.35;3.92;;;;;;;12.16;38.65;101633.31;5087968;27;20410;-55
2022/04/15 01:13:52;;;;;;;5.03;3.70;;;;;;;12.14;38.56;101631.81;5083460;28;20792;-55
2022/04/15 01:16:20;;;;;;;9.15;3.80;;;;;;;12.08;38.73;101632.41;5085715;28;20449;-55
2022/04/15 01:18:48;;;;;;;7.45;4.00;;;;;;;12.04;38.63;101622.09;5085497;28;20858;-55
2022/04/15 01:21:17;;;;;;;8.43;4.63;;;;;;;12.04;38.73;101629.25;5083936;28;20494;-56
2022/04/15 01:25:19;;;;;;;7.35;4.50;;;;;;;11.96;38.51;101629.22;5080218;27;2081314;-56
2022/04/15 01:27:48;;;;;;;5.28;4.10;;;;;;;11.85;39.06;101636.41;5147778;27;20485;-55
2022/04/15 01:30:17;;;;;;;8.05;4.03;;;;;;;11.76;39.02;101634.69;5147844;27;20409;-56
2022/04/15 01:32:45;;;;;;;7.95;3.60;;;;;;;11.72;39.21;101641.31;5147806;27;20413;-55
2022/04/15 01:35:16;;;;;;;10.88;4.00;;;;;;;11.67;38.99;101640.94;5150917;27;20860;-54
2022/04/15 01:37:44;;;;;;;8.60;3.50;;;;;;;11.59;38.98;101635.53;5150107;27;20405;-55
2022/04/15 01:40:13;;;;;;;6.90;3.50;;;;;;;11.53;39.29;101637.00;5147649;27;20447;-56
2022/04/15 01:42:43;;;;;;;5.30;3.45;;;;;;;11.41;39.07;101638.22;5147200;27;20436;-56
2022/04/15 01:45:10;;;;;;;5.07;3.22;;;;;;;11.24;39.55;101637.25;5147768;27;20428;-56
2022/04/15 01:47:38;;;;;;;4.93;3.00;;;;;;;11.17;39.86;101636.19;5145498;27;20435;-56
2022/04/15 01:50:07;;;;;;;4.50;3.20;;;;;;;11.16;39.30;101642.47;5146269;27;20416;-56
2022/04/15 01:52:34;;;;;;;5.60;3.60;;;;;;;11.14;39.36;101632.00;5144964;27;20441;-58
2022/04/15 01:55:02;;;;;;;5.93;3.97;;;;;;;11.00;39.92;101638.66;5145905;27;20870;-59
2022/04/15 01:57:29;;;;;;;6.07;3.85;;;;;;;10.95;40.03;101642.72;5146925;27;20433;-55
2022/04/15 01:59:57;;;;;;;5.43;3.80;;;;;;;10.90;39.85;101632.59;5146354;27;20421;-54
2022/04/15 02:02:24;;;;;;;4.70;3.67;;;;;;;10.89;40.04;101636.22;5146653;27;20405;-52
2022/04/15 02:04:52;;;;;;;7.05;3.92;;;;;;;10.84;40.54;101634.03;5149817;27;20457;-56
2022/04/15 02:07:19;;;;;;;6.40;4.07;;;;;;;10.78;40.63;101637.25;5147040;27;20409;-56
2022/04/15 02:09:46;;;;;;;5.28;3.88;;;;;;;10.73;40.93;101630.72;5146541;27;20444;-55
2022/04/15 02:12:13;;;;;;;5.53;3.22;;;;;;;10.70;40.70;101638.00;5146615;27;20409;-57
2022/04/15 02:14:40;;;;;;;4.72;3.00;;;;;;;10.65;40.85;101627.00;5147174;27;20444;-56
2022/04/15 02:17:08;;;;;;;5.10;3.22;;;;;;;10.62;40.55;101623.81;5146728;27;20452;-55
2022/04/15 02:19:35;;;;;;;5.10;3.47;;;;;;;10.66;40.30;101619.88;5152167;27;20419;-56
2022/04/15 02:22:02;;;;;;;5.30;3.10;;;;;;;10.65;40.57;101619.03;5146648;27;20417;-55
2022/04/15 02:24:29;;;;;;;7.65;3.50;;;;;;;10.65;40.85;101627.00;5148854;27;20425;-56
2022/04/15 02:26:56;;;;;;;7.00;3.10;;;;;;;10.65;41.14;101620.88;5147094;27;20440;-54
2022/04/15 02:29:24;;;;;;;5.30;3.08;;;;;;;10.59;40.57;101621.44;5149640;27;20405;-56
2022/04/15 02:31:51;;;;;;;5.07;3.20;;;;;;;10.63;40.96;101621.00;5146360;27;20440;-55
2022/04/15 02:34:19;;;;;;;6.03;3.05;;;;;;;10.61;40.99;101619.50;5149294;27;20854;-56
2022/04/15 02:36:46;;;;;;;5.88;3.50;;;;;;;10.58;40.79;101620.63;5132113;27;20462;-55
2022/04/15 02:39:13;;;;;;;8.82;3.55;;;;;;;10.60;40.87;101621.28;5132395;27;20833;-55
2022/04/15 02:41:40;;;;;;;4.90;3.35;;;;;;;10.59;41.19;101614.34;5132274;27;20856;-55
2022/04/15 02:44:08;;;;;;;5.55;3.30;;;;;;;10.59;40.99;101618.78;5133856;27;20512;-56
2022/04/15 02:46:35;;;;;;;5.78;3.50;;;;;;;10.57;40.64;101624.25;5133928;27;20413;-54
2022/04/15 02:49:03;;;;;;;5.88;3.47;;;;;;;10.57;40.86;101626.91;5133330;27;20433;-56
2022/04/15 02:51:32;;;;;;;6.15;3.60;;;;;;;10.56;41.43;101613.81;5133079;27;20406;-55
2022/04/15 02:53:59;;;;;;;5.22;3.42;;;;;;;10.51;41.75;101611.59;5132995;27;20980;-55
2022/04/15 02:56:25;;;;;;;3.95;3.33;;;;;;;10.47;41.27;101615.50;5132950;27;20945;-56
2022/04/15 02:58:52;;;;;;;6.93;3.83;;;;;;;10.44;41.57;101618.44;5132874;27;20402;-54
2022/04/15 03:01:19;;;;;;;9.43;3.80;;;;;;;10.45;40.92;101615.66;5132812;27;20413;-57
2022/04/15 03:03:46;;;;;;;8.33;4.20;;;;;;;10.45;41.62;101610.34;5132655;27;20512;-54
2022/04/15 03:06:13;;;;;;;9.77;4.60;;;;;;;10.40;41.75;101607.31;5132994;27;20498;-53
2022/04/15 03:08:41;;;;;;;22.65;15.90;;;;;;;10.37;41.41;101617.38;5132829;27;20445;-56
2022/04/15 03:11:08;;;;;;;11.75;5.63;;;;;;;10.40;41.66;101622.38;5133279;27;20437;-56
2022/04/15 03:13:36;;;;;;;10.50;8.90;;;;;;;10.32;41.51;101615.19;5132859;27;20441;-56
2022/04/15 03:16:03;;;;;;;7.30;6.20;;;;;;;10.28;41.39;101619.03;5133219;27;20433;-54
2022/04/15 03:18:30;;;;;;;6.72;4.80;;;;;;;10.26;41.88;101613.06;5132516;27;20413;-54
2022/04/15 03:20:57;;;;;;;6.80;4.43;;;;;;;10.17;42.10;101616.59;5132785;27;20425;-55
2022/04/15 03:23:24;;;;;;;7.80;4.95;;;;;;;10.13;41.93;101616.03;5132210;27;20851;-55
2022/04/15 03:25:52;;;;;;;8.70;5.00;;;;;;;10.09;42.44;101617.31;5132686;27;20460;-54
2022/04/15 03:28:19;;;;;;;8.35;5.25;;;;;;;10.12;41.97;101611.75;5132527;27;20425;-56
2022/04/15 03:30:46;;;;;;;10.18;4.88;;;;;;;10.13;41.63;101616.03;5132611;27;20420;-54
2022/04/15 03:33:13;;;;;;;14.68;5.68;;;;;;;10.11;42.20;101621.47;5132193;27;20421;-56
2022/04/15 03:35:40;;;;;;;12.52;5.05;;;;;;;10.09;42.15;101619.97;5132458;27;20434;-56
2022/04/15 03:38:07;;;;;;;9.98;5.10;;;;;;;10.12;42.29;101615.22;5132444;27;20441;-55
2022/04/15 03:40:34;;;;;;;8.37;5.20;;;;;;;10.12;42.12;101628.47;5132144;27;20464;-54
2022/04/15 03:43:03;;;;;;;7.87;4.80;;;;;;;10.05;42.36;101622.06;5132516;27;20410;-55
2022/04/15 03:45:31;;;;;;;12.45;5.00;;;;;;;10.06;42.23;101628.19;5131896;27;20432;-54
2022/04/15 03:47:58;;;;;;;10.57;5.57;;;;;;;10.11;42.29;101628.59;5130928;27;20906;-54
2022/04/15 03:50:26;;;;;;;9.60;5.75;;;;;;;10.12;42.62;101628.47;5132197;27;20410;-54
2022/04/15 03:52:54;;;;;;;9.15;5.88;;;;;;;10.14;42.18;101625.66;5132143;27;20413;-56
2022/04/15 03:55:23;;;;;;;12.18;6.90;;;;;;;10.18;42.18;101628.88;5132346;27;20442;-54
2022/04/15 03:57:50;;;;;;;9.23;5.88;;;;;;;10.20;42.10;101630.38;5132019;27;20764;-55
2022/04/15 04:00:20;;;;;;;11.63;6.00;;;;;;;10.21;41.62;101621.47;5131714;27;20907;-54
2022/04/15 04:02:48;;;;;;;14.60;5.17;;;;;;;10.23;42.29;101624.78;5131642;27;20489;-55
2022/04/15 04:05:15;;;;;;;12.07;5.60;;;;;;;10.34;42.35;101634.41;5131330;27;20457;-54
2022/04/15 04:07:43;;;;;;;12.85;5.90;;;;;;;10.45;42.05;101633.38;5131818;27;20463;-54
2022/04/15 04:10:12;;;;;;;18.60;9.23;;;;;;;10.57;41.85;101632.22;5131820;27;20455;-56
2022/04/15 04:12:39;;;;;;;22.30;9.65;;;;;;;10.65;41.04;101637.59;5131373;27;20829;-56
2022/04/15 04:15:08;;;;;;;14.43;7.47;;;;;;;10.73;40.75;101636.03;5131648;27;20413;-56
2022/04/15 04:17:36;;;;;;;11.55;6.47;;;;;;;10.72;41.02;101645.81;5131592;27;20431;-57
2022/04/15 04:20:06;;;;;;;18.42;6.30;;;;;;;10.82;40.01;101645.75;5131135;27;20462;-57
2022/04/15 04:22:35;;;;;;;15.50;5.80;;;;;;;10.99;39.77;101647.59;5131258;27;20445;-57
2022/04/15 04:25:02;;;;;;;12.30;5.18;;;;;;;10.89;40.54;101644.16;5131378;27;20961;-57
2022/04/15 04:27:30;;;;;;;7.67;4.87;;;;;;;11.07;40.25;101647.69;5131841;27;20488;-57
2022/04/15 04:29:57;;;;;;;9.57;4.70;;;;;;;11.22;39.40;101645.34;5131151;27;21015;-57
2022/04/15 04:32:24;;;;;;;8.60;4.85;;;;;;;11.28;39.29;101646.56;5131243;27;20402;-57
2022/04/15 04:34:53;;;;;;;7.65;5.05;;;;;;;11.48;39.20;101650.72;5131215;27;20479;-56
2022/04/15 04:37:19;;;;;;;8.87;5.07;;;;;;;11.91;38.35;101650.91;5131212;27;20440;-55
2022/04/15 04:39:46;;;;;;;11.73;5.63;;;;;;;12.36;37.67;101659.66;5130955;27;20429;-56
2022/04/15 04:42:13;;;;;;;17.90;9.07;;;;;;;12.57;37.23;101652.13;5130623;27;20412;-56
2022/04/15 04:44:41;;;;;;;15.63;6.50;;;;;;;12.59;37.40;101659.94;5130610;27;20508;-57
2022/04/15 04:47:10;;;;;;;11.80;5.35;;;;;;;13.09;36.55;101651.13;5131058;27;20445;-57
2022/04/15 04:49:38;;;;;;;9.13;4.90;;;;;;;13.43;36.02;101642.16;5130658;27;20466;-56
2022/04/15 04:52:07;;;;;;;8.80;4.78;;;;;;;13.87;35.56;101647.16;5130442;27;20831;-57
2022/04/15 04:54:35;;;;;;;12.85;5.68;;;;;;;14.07;34.93;101647.63;5129030;27;20409;-57
2022/04/15 04:57:02;;;;;;;15.65;5.80;;;;;;;14.37;34.68;101645.22;5129625;27;20493;-56
2022/04/15 04:59:31;;;;;;;12.98;5.40;;;;;;;14.45;34.48;101641.69;5130556;27;20467;-56
2022/04/15 05:01:58;;;;;;;15.95;5.88;;;;;;;14.42;34.14;101650.88;5128893;27;20487;-57
2022/04/15 05:04:25;;;;;;;9.30;5.38;;;;;;;14.43;34.17;101646.38;5128649;27;20457;-58
2022/04/15 05:06:52;;;;;;;9.90;5.70;;;;;;;14.33;34.37;101644.72;5128207;27;20437;-58
2022/04/15 05:09:21;;;;;;;13.33;6.37;;;;;;;14.30;34.79;101652.25;5128826;27;20403;-57
2022/04/15 05:11:49;;;;;;;10.98;6.05;;;;;;;14.32;34.47;101648.38;5128317;27;20401;-58
2022/04/15 05:14:17;;;;;;;12.13;5.93;;;;;;;14.45;34.34;101649.69;5128391;27;20416;-57
2022/04/15 05:16:44;;;;;;;14.38;6.90;;;;;;;14.64;34.04;101649.31;5129569;27;20417;-56
2022/04/15 05:19:11;;;;;;;13.73;7.15;;;;;;;14.69;34.62;101651.44;5130233;27;20941;-58
2022/04/15 05:21:38;;;;;;;10.57;6.45;;;;;;;14.68;34.66;101645.28;5130455;27;20937;-57
2022/04/15 05:24:07;;;;;;;12.35;7.10;;;;;;;14.67;34.75;101651.59;5130483;28;20456;-56
2022/04/15 05:26:35;;;;;;;13.02;7.10;;;;;;;14.72;34.96;101648.44;5130418;28;20433;-57
2022/04/15 05:30:22;;;;;;;14.00;7.53;;;;;;;15.68;33.91;101643.59;5049292;28;20417;-56
2022/04/15 05:32:49;;;;;;;12.35;8.07;;;;;;;16.70;32.19;101651.03;5046399;28;20417;-56
2022/04/15 05:35:16;;;;;;;13.68;7.40;;;;;;;17.24;31.46;101647.13;5045963;28;20416;-56
2022/04/15 05:37:43;;;;;;;12.60;7.90;;;;;;;17.65;30.89;101641.09;5044626;28;20418;-56
2022/04/15 05:41:21;;;;;;;11.20;7.85;;;;;;;18.11;30.29;101640.63;5098165;27;20432;-55
2022/04/15 05:43:48;;;;;;;12.18;9.57;;;;;;;18.24;30.27;101644.38;5086491;28;20410;-56
2022/04/15 05:46:15;;;;;;;13.07;7.80;;;;;;;17.81;30.72;101644.50;5086383;28;20800;-57
2022/04/15 05:48:42;;;;;;;10.85;8.25;;;;;;;17.40;31.50;101648.72;5086315;28;20410;-56
2022/04/15 05:51:09;;;;;;;13.05;7.65;;;;;;;17.24;31.32;101647.13;5086669;28;20414;-55
2022/04/15 05:53:36;;;;;;;12.90;7.57;;;;;;;17.13;31.66;101651.13;5086478;28;20406;-56
2022/04/15 05:56:04;;;;;;;13.60;7.65;;;;;;;17.27;31.41;101646.75;5086335;28;20785;-56
2022/04/15 05:58:32;;;;;;;14.20;7.07;;;;;;;17.49;31.12;101644.88;5079199;28;20441;-57
2022/04/15 06:00:59;;;;;;;12.50;7.22;;;;;;;18.07;30.40;101642.03;5080129;28;20464;-55
2022/04/15 06:03:44;;;;;;;13.25;7.55;;;;;;;18.82;29.51;101638.69;5054452;28;20463;-55
2022/04/15 06:06:11;;;;;;;12.18;7.05;;;;;;;18.89;29.20;101637.69;5046016;28;20420;-56
2022/04/15 06:08:38;;;;;;;11.47;7.13;;;;;;;18.80;29.06;101638.00;5046286;28;20907;-55
2022/04/15 06:11:05;;;;;;;9.40;6.57;;;;;;;18.54;29.28;101637.72;5046552;28;20409;-55
2022/04/15 06:13:32;;;;;;;10.93;7.05;;;;;;;18.36;29.51;101632.06;5046518;28;20457;-55
2022/04/15 06:15:59;;;;;;;12.55;6.97;;;;;;;18.51;29.67;101643.50;5046274;28;20938;-56
2022/04/15 06:18:29;;;;;;;10.98;7.10;;;;;;;18.68;29.04;101637.78;5046500;28;20438;-55
2022/04/15 06:21:00;;;;;;;9.70;7.00;;;;;;;18.75;28.82;101640.50;5046703;28;20870;-55
2022/04/15 06:23:27;;;;;;;9.43;6.45;;;;;;;18.80;28.61;101640.69;5046234;28;20479;-55
2022/04/15 06:25:55;;;;;;;11.57;6.82;;;;;;;19.09;28.24;101631.53;5045569;28;20422;-55
2022/04/15 06:28:22;;;;;;;9.20;6.28;;;;;;;19.18;28.42;101622.25;5045303;28;20528;-55
2022/04/15 06:30:49;;;;;;;11.52;6.10;;;;;;;19.33;28.20;101626.59;5045926;28;20429;-56
2022/04/15 06:33:18;;;;;;;10.38;6.25;;;;;;;19.83;27.46;101618.94;5045857;28;20424;-57
2022/04/15 06:35:46;;;;;;;8.32;5.60;;;;;;;20.45;26.74;101619.38;5044872;28;20946;-56
2022/04/15 06:38:14;;;;;;;10.95;5.95;;;;;;;20.41;26.45;101620.84;5045180;28;20410;-57
2022/04/15 06:40:41;;;;;;;8.93;5.53;;;;;;;20.37;26.21;101614.25;5045605;28;20923;-55
2022/04/15 06:43:08;;;;;;;9.73;5.53;;;;;;;20.47;26.08;101619.16;5045039;28;20943;-56
2022/04/15 06:45:35;;;;;;;10.38;5.38;;;;;;;20.98;25.45;101616.44;5045098;28;20421;-56
2022/04/15 06:48:02;;;;;;;9.83;5.73;;;;;;;20.94;25.18;101626.03;5044916;28;20442;-56
2022/04/15 06:50:30;;;;;;;12.37;6.10;;;;;;;21.15;24.83;101624.81;5044977;28;20799;-57
2022/04/15 06:52:58;;;;;;;7.53;5.53;;;;;;;21.34;24.36;101620.34;5045142;28;20410;-56
2022/04/15 06:55:26;;;;;;;9.00;5.30;;;;;;;21.79;24.02;101621.22;5042211;28;20448;-57
2022/04/15 06:57:53;;;;;;;7.80;5.55;;;;;;;21.85;23.73;101613.06;5045110;28;20907;-57
2022/04/15 07:00:21;;;;;;;8.07;5.20;;;;;;;21.64;24.33;101621.56;5044790;28;20425;-56
2022/04/15 07:02:47;;;;;;;8.98;6.10;;;;;;;22.02;23.88;101617.88;5058083;28;20432;-58
2022/04/15 07:05:15;;;;;;;9.63;7.05;;;;;;;22.06;24.00;101619.91;5065377;28;20420;-57
2022/04/15 07:07:43;;;;;;;11.00;5.80;;;;;;;22.70;23.45;101614.97;5065069;28;20527;-58
2022/04/15 07:10:11;;;;;;;7.18;5.90;;;;;;;22.99;22.58;101615.19;5065335;28;20411;-57
2022/04/15 07:12:40;;;;;;;10.35;6.20;;;;;;;23.32;22.42;101613.91;5065293;28;20447;-58
2022/04/15 07:15:08;;;;;;;9.63;6.20;;;;;;;23.05;22.82;101608.09;5052158;28;20440;-56
2022/04/15 07:17:35;;;;;;;10.32;6.75;;;;;;;23.36;22.47;101611.56;5051733;28;20417;-57
2022/04/15 07:20:02;;;;;;;9.15;6.80;;;;;;;23.64;22.18;101606.28;5052073;28;20424;-58
2022/04/15 07:22:29;;;;;;;10.27;7.00;;;;;;;24.17;21.65;101609.88;5051904;28;20432;-58
2022/04/15 07:24:56;;;;;;;13.07;6.97;;;;;;;26.15;19.54;101605.66;5052200;28;20448;-57
2022/04/15 07:27:23;;;;;;;11.80;7.47;;;;;;;25.18;20.30;101611.25;5051647;28;20413;-57
2022/04/15 07:29:53;;;;;;;9.98;7.53;;;;;;;24.82;20.66;101617.94;5051386;28;20455;-57
2022/04/15 07:32:22;;;;;;;10.93;7.93;;;;;;;24.54;21.26;101612.28;5051261;28;20462;-58
2022/04/15 07:34:49;;;;;;;11.82;8.02;;;;;;;24.43;21.69;101604.97;5051272;28;20412;-57
2022/04/15 07:37:17;;;;;;;13.25;8.27;;;;;;;23.40;22.92;101604.63;5051075;28;20975;-56
2022/04/15 07:39:44;;;;;;;11.35;7.78;;;;;;;22.62;23.65;101609.09;5050283;28;20409;-56
2022/04/15 07:42:12;;;;;;;10.60;7.75;;;;;;;22.57;24.08;101600.84;5051399;28;20508;-56
2022/04/15 07:44:40;;;;;;;15.00;8.38;;;;;;;22.06;24.62;101603.72;5051419;28;20416;-56
2022/04/15 07:47:09;;;;;;;9.38;7.30;;;;;;;21.96;24.77;101598.00;5051421;28;20506;-57
2022/04/15 07:50:55;;;;;;;13.18;7.72;;;;;;;22.31;24.20;101605.53;5049222;28;20405;-55
2022/04/15 07:53:22;;;;;;;10.98;7.78;;;;;;;22.09;24.27;101600.56;5046734;28;20424;-54
2022/04/15 07:55:49;;;;;;;12.85;7.45;;;;;;;22.09;24.73;101603.28;5046721;28;20418;-56
2022/04/15 07:58:18;;;;;;;15.13;7.80;;;;;;;22.70;23.79;101604.16;5046627;28;20418;-54
2022/04/15 08:00:45;;;;;;;10.43;7.88;;;;;;;21.85;25.29;101596.88;5046115;28;20800;-57
2022/04/15 08:03:12;;;;;;;11.98;7.60;;;;;;;21.23;26.40;101606.72;5046088;28;20449;-55
2022/04/15 08:05:39;;;;;;;12.60;7.68;;;;;;;20.80;27.20;101601.00;5046406;28;20454;-54
2022/04/15 08:08:08;;;;;;;12.00;8.07;;;;;;;20.59;27.65;101594.03;5046366;28;20986;-57
2022/04/15 08:10:35;;;;;;;9.68;7.38;;;;;;;20.32;27.92;101600.59;5027458;28;20426;-55
2022/04/15 08:13:02;;;;;;;10.13;7.70;;;;;;;20.64;27.55;101590.75;5046412;28;20489;-55
2022/04/15 08:15:30;;;;;;;11.02;8.15;;;;;;;20.95;27.00;101589.91;5045949;28;20418;-55
2022/04/15 08:17:57;;;;;;;10.98;7.05;;;;;;;20.68;27.61;101583.88;5045666;28;20492;-56
2022/04/15 08:20:24;;;;;;;10.48;7.28;;;;;;;20.60;27.99;101587.63;5045721;28;20446;-56
2022/04/15 08:22:51;;;;;;;12.32;7.38;;;;;;;21.20;27.71;101570.25;5045853;28;20980;-56
2022/04/15 08:25:21;;;;;;;8.20;6.60;;;;;;;21.06;27.83;101568.72;5045963;28;20453;-56
2022/04/15 08:27:47;;;;;;;11.20;7.20;;;;;;;20.92;28.44;101574.22;5045695;28;20448;-53
2022/04/15 08:30:14;;;;;;;10.38;6.68;;;;;;;20.90;27.83;101568.19;5045903;28;20437;-54
2022/04/15 08:32:41;;;;;;;9.57;6.95;;;;;;;20.74;28.22;101566.00;5046199;28;20414;-55
2022/04/15 08:35:11;;;;;;;11.48;6.50;;;;;;;20.98;27.89;101564.41;5045976;28;20406;-54
2022/04/15 08:37:38;;;;;;;10.15;6.60;;;;;;;20.69;28.44;101565.84;5045965;28;20471;-55
2022/04/15 08:40:07;;;;;;;9.00;6.40;;;;;;;20.97;28.19;101554.66;5045567;28;20422;-54
2022/04/15 08:42:37;;;;;;;8.20;6.25;;;;;;;21.09;27.78;101552.94;5045855;28;20463;-54
2022/04/15 08:45:06;;;;;;;8.20;6.28;;;;;;;21.35;27.38;101545.66;5045708;28;20475;-54
2022/04/15 08:47:34;;;;;;;9.77;6.30;;;;;;;21.46;27.13;101550.34;5045406;28;20414;-54
2022/04/15 08:50:03;;;;;;;10.27;6.47;;;;;;;21.23;27.09;101540.16;5045631;28;20465;-54
2022/04/15 08:52:31;;;;;;;10.27;6.18;;;;;;;21.15;26.91;101543.94;5045660;28;20421;-54
2022/04/15 08:54:58;;;;;;;8.57;5.80;;;;;;;20.96;27.30;101543.06;5045624;28;20424;-55
2022/04/15 08:57:25;;;;;;;8.98;6.82;;;;;;;20.60;27.83;101539.13;5045912;28;20471;-55
2022/04/15 08:59:54;;;;;;;9.25;6.20;;;;;;;20.68;27.91;101543.47;5045085;28;20442;-55
2022/04/15 09:02:31;;;;;;;9.23;6.00;;;;;;;21.26;27.35;101531.63;5031631;28;20476;-57
2022/04/15 09:04:58;;;;;;;8.32;6.50;;;;;;;21.05;27.34;101538.25;5032122;28;20417;-54
2022/04/15 09:07:28;;;;;;;9.35;7.05;;;;;;;20.92;27.66;101528.38;5032102;28;20410;-56
2022/04/15 09:09:56;;;;;;;10.30;7.20;;;;;;;21.27;27.35;101518.97;5025923;28;20513;-57
2022/04/15 09:12:25;;;;;;;11.15;5.95;;;;;;;20.94;26.90;101526.31;5025205;28;20792;-56
2022/04/15 09:14:58;;;;;;;9.70;6.40;;;;;;;20.43;27.28;101519.13;5025444;28;20437;-56
2022/04/15 09:17:27;;;;;;;10.00;6.43;;;;;;;20.66;27.02;101521.31;5025583;28;20497;-54
2022/04/15 09:19:54;;;;;;;9.52;7.00;;;;;;;20.31;27.72;101513.63;5030998;28;20418;-56
2022/04/15 09:22:21;;;;;;;10.13;6.40;;;;;;;20.46;27.68;101516.00;5031092;28;20426;-54
2022/04/15 09:24:50;;;;;;;10.05;6.68;;;;;;;20.71;27.00;101508.00;5030964;28;20972;-54
2022/04/15 09:27:18;;;;;;;6.40;5.35;;;;;;;20.74;25.99;101502.19;5031400;28;20501;-55
2022/04/15 09:29:45;;;;;;;8.00;5.70;;;;;;;20.85;25.63;101491.72;5030936;28;20499;-56
2022/04/15 09:32:15;;;;;;;8.13;5.60;;;;;;;21.15;26.11;101481.13;5031276;28;20808;-55
2022/04/15 09:34:55;;;;;;;8.07;5.35;;;;;;;20.96;25.56;101477.56;5030824;28;20978;-56
2022/04/15 09:37:23;;;;;;;7.68;5.13;;;;;;;21.02;24.69;101478.56;5031326;28;20410;-56
2022/04/15 09:40:12;;;;;;;10.47;6.87;;;;;;;20.90;25.77;101468.47;5030614;28;20445;-58
2022/04/15 09:42:45;;;;;;;10.18;7.25;;;;;;;21.28;25.28;101466.69;5031405;28;20472;-56
2022/04/15 09:45:14;;;;;;;9.48;6.57;;;;;;;21.71;24.78;101466.63;5027192;28;20426;-58
2022/04/15 09:47:43;;;;;;;9.60;7.00;;;;;;;21.74;25.04;101468.09;5025887;28;20438;-56
2022/04/15 09:50:22;;;;;;;9.82;7.35;;;;;;;21.58;25.49;101464.94;5030603;28;20442;-55
2022/04/15 09:52:50;;;;;;;10.55;7.38;;;;;;;21.68;25.66;101463.56;5030300;28;20418;-55
2022/04/15 09:55:19;;;;;;;10.23;7.10;;;;;;;21.62;25.29;101451.00;5030422;28;20912;-56
2022/04/15 09:57:47;;;;;;;9.45;6.35;;;;;;;21.76;24.31;101452.47;5029891;28;20422;-56
2022/04/15 10:00:16;;;;;;;7.68;6.32;;;;;;;21.71;24.31;101445.06;5030679;28;20424;-54
2022/04/15 10:02:45;;;;;;;9.18;6.13;;;;;;;21.69;24.13;101441.75;5031310;28;20516;-55
2022/04/15 10:05:15;;;;;;;8.20;6.28;;;;;;;21.81;24.14;101443.72;5029469;28;20422;-54
2022/04/15 10:07:42;;;;;;;8.90;6.47;;;;;;;21.60;24.74;101436.91;5042216;28;20421;-56
2022/04/15 10:10:10;;;;;;;8.95;6.00;;;;;;;21.87;24.39;101440.09;5030720;28;20434;-55
2022/04/15 10:12:39;;;;;;;8.25;5.75;;;;;;;22.04;24.22;101426.78;5029670;28;20422;-54
2022/04/15 10:15:09;;;;;;;8.95;5.07;;;;;;;22.03;23.35;101423.25;5030756;28;20461;-56
2022/04/15 10:17:39;;;;;;;7.95;4.80;;;;;;;21.91;23.52;101431.34;5031086;28;20476;-55
2022/04/15 10:20:09;;;;;;;7.93;5.90;;;;;;;21.93;24.26;101422.97;5030677;28;20415;-55
2022/04/15 10:22:38;;;;;;;9.10;6.07;;;;;;;22.03;24.35;101417.06;5030708;28;20872;-55
2022/04/15 10:25:07;;;;;;;8.65;5.82;;;;;;;22.38;24.47;101411.75;5030542;28;20468;-56
2022/04/15 10:27:34;;;;;;;7.50;5.50;;;;;;;22.36;24.18;101405.78;5031675;28;20444;-55
2022/04/15 10:30:03;;;;;;;7.50;4.90;;;;;;;22.29;23.16;101408.59;5030428;28;20430;-56
2022/04/15 10:32:30;;;;;;;6.65;4.57;;;;;;;22.21;22.55;101408.88;5030480;28;20445;-54
2022/04/15 10:35:00;;;;;;;5.22;4.18;;;;;;;22.22;22.45;101399.75;5030820;28;20494;-54
2022/04/15 10:37:55;;;;;;;6.15;4.57;;;;;;;22.45;22.71;101393.56;5030465;28;20418;-56
2022/04/15 10:40:24;;;;;;;7.60;4.40;;;;;;;22.81;22.08;101396.31;5030218;28;20425;-55
2022/04/15 10:42:51;;;;;;;7.28;3.90;;;;;;;22.59;21.72;101383.38;5030639;28;20414;-55
2022/04/15 10:45:29;;;;;;;5.00;3.77;;;;;;;22.53;22.11;101379.72;5030565;28;20446;-55
2022/04/15 10:47:59;;;;;;;5.43;3.60;;;;;;;22.74;21.58;101380.19;5030213;28;20438;-55
2022/04/15 10:50:31;;;;;;;6.53;3.90;;;;;;;22.68;21.53;101371.16;5029901;28;20793;-55
2022/04/15 10:53:31;;;;;;;7.75;4.90;;;;;;;22.97;21.65;101370.44;5030495;28;20438;-54
2022/04/15 10:56:08;;;;;;;6.00;3.67;;;;;;;22.97;21.62;101367.75;5030090;28;20414;-57
2022/04/15 11:01:13;;;;;;;6.63;4.28;;;;;;;23.05;21.90;101373.66;5028415;28;20510;-56
2022/04/15 11:01:35;;;;;;;6.70;3.78;;;;;;;22.86;22.06;101364.81;5029662;28;20995;-56
2022/04/15 11:04:08;;;;;;;5.50;3.72;;;;;;;22.82;22.17;101365.53;5029516;28;20496;-56
2022/04/15 11:06:35;;;;;;;6.88;4.10;;;;;;;22.91;22.25;101364.13;5029683;28;20552;-57
2022/04/15 11:09:16;;;;;;;6.43;4.18;;;;;;;23.05;22.05;101359.31;5029736;28;20450;-55
2022/04/15 11:11:45;;;;;;;7.30;4.28;;;;;;;23.23;21.79;101355.63;5029721;28;20504;-55
2022/04/15 11:14:16;;;;;;;6.97;4.07;;;;;;;23.09;22.19;101353.19;5029431;28;20843;-55
2022/04/15 11:16:46;;;;;;;5.45;3.70;;;;;;;22.83;22.06;101353.66;5029977;28;20445;-56
2022/04/15 11:19:17;;;;;;;6.30;3.90;;;;;;;23.13;21.89;101348.13;5029711;28;20416;-56
2022/04/15 11:21:50;;;;;;;5.75;3.88;;;;;;;23.24;21.81;101351.84;5030095;28;20492;-54
2022/04/15 11:24:23;;;;;;;6.93;4.30;;;;;;;23.11;22.13;101342.13;5029594;28;20437;-56
2022/04/15 11:26:50;;;;;;;7.40;4.00;;;;;;;23.04;22.14;101344.09;5029452;28;20765;-55
2022/04/15 11:29:17;;;;;;;6.70;3.70;;;;;;;23.08;22.61;101346.13;5029808;28;20418;-56
2022/04/15 11:31:46;;;;;;;5.82;4.30;;;;;;;22.91;22.65;101339.78;5029414;28;20470;-55
2022/04/15 11:34:15;;;;;;;7.63;3.83;;;;;;;23.09;22.39;101336.13;5029871;28;20414;-54